THA7923 VTBS-KMCO
Flight info
| Callsign | THA7923 |
|---|---|
| Flight time | N/A |
| Altitude | 31000 |
| Route | LIPLI1E LIPLI Y16 BUTRA A1 PAPRA/K0943F310 A1 IKELA/N0488F270 A1 IDOSI/N0507F310 DCT KAPLI/N0502F330 DCT MKG DCT APU A1 SAPET DCT AKVAS A1 HKC Y45 MARCO Y141 SAMON Z17 GEPPA/N0486F350 Z17 MRE DCT CHE DCT MVE G583 BISIV/K0913F350 G583 DIMOT A842 NAMUL T564 RUSOR/N0482F370 B241 ENM DCT MCG DCT GKN Q811 YXY J515 DACEY/N0489F390 J515 YYE J537 YPE Q819 YEGGA Q862 DURUR Q971 MOT DCT ABR J45 IRK DCT FAM/N0477F410 J151 VUZ DCT OTK LEESE3 |
| Aircraft | B77W/H-VGDW/C |
Departure
| Time | N/A |
|---|---|
| Airport | Suvarnabhumi Airport (VTBS) |
Arrival
| Time | 2026-04-22 07:03 |
|---|---|
| Airport | Orlando International Airport (KMCO) |
| Time | Latitude | Longitude | Altitude | Speed | Heading |
|---|---|---|---|---|---|
| 2026-04-22 03:55 | 51.17322 | -106.44243 | 38834 ft | 538 kts | 121° |
| 2026-04-22 03:55 | 51.16201 | -106.40701 | 38834 ft | 538 kts | 121° |
| 2026-04-22 03:56 | 51.12827 | -106.30059 | 38834 ft | 538 kts | 121° |
| 2026-04-22 03:56 | 51.09445 | -106.19438 | 38834 ft | 537 kts | 121° |
| 2026-04-22 03:57 | 51.06054 | -106.08848 | 38833 ft | 538 kts | 121° |
| 2026-04-22 03:57 | 51.02651 | -105.98259 | 38834 ft | 537 kts | 121° |
| 2026-04-22 03:58 | 50.99257 | -105.87734 | 38832 ft | 539 kts | 121° |
| 2026-04-22 03:58 | 50.95829 | -105.77151 | 38841 ft | 539 kts | 121° |
| 2026-04-22 03:59 | 50.92391 | -105.66577 | 38844 ft | 539 kts | 121° |
| 2026-04-22 03:59 | 50.88943 | -105.56032 | 38843 ft | 538 kts | 121° |
| 2026-04-22 04:00 | 50.85490 | -105.45513 | 38843 ft | 537 kts | 121° |
| 2026-04-22 04:00 | 50.82060 | -105.35107 | 38854 ft | 537 kts | 121° |
| 2026-04-22 04:01 | 50.78588 | -105.24605 | 38851 ft | 538 kts | 121° |
| 2026-04-22 04:01 | 50.75105 | -105.14122 | 38852 ft | 539 kts | 121° |
| 2026-04-22 04:02 | 50.71609 | -105.03641 | 38860 ft | 538 kts | 121° |
| 2026-04-22 04:02 | 50.68056 | -104.93320 | 38863 ft | 536 kts | 126° |
| 2026-04-22 04:03 | 50.63644 | -104.83929 | 38867 ft | 529 kts | 137° |
| 2026-04-22 04:03 | 50.58514 | -104.75686 | 38867 ft | 526 kts | 140° |
| 2026-04-22 04:04 | 50.53331 | -104.67542 | 38859 ft | 526 kts | 140° |
| 2026-04-22 04:04 | 50.48203 | -104.59429 | 38858 ft | 526 kts | 140° |
| 2026-04-22 04:05 | 50.43059 | -104.51251 | 38861 ft | 526 kts | 140° |
| 2026-04-22 04:05 | 50.37917 | -104.43091 | 38860 ft | 526 kts | 140° |
| 2026-04-22 04:06 | 50.32765 | -104.34955 | 38858 ft | 525 kts | 140° |
| 2026-04-22 04:06 | 50.29915 | -104.30466 | 38860 ft | 525 kts | 140° |
| 2026-04-22 04:07 | 50.24929 | -104.22632 | 38861 ft | 525 kts | 140° |
| 2026-04-22 04:07 | 50.19763 | -104.14541 | 38859 ft | 525 kts | 140° |
| 2026-04-22 04:08 | 50.14599 | -104.06473 | 38862 ft | 524 kts | 140° |
| 2026-04-22 04:08 | 50.09436 | -103.98436 | 38855 ft | 524 kts | 140° |
| 2026-04-22 04:09 | 50.04291 | -103.90456 | 38852 ft | 524 kts | 140° |
| 2026-04-22 04:09 | 49.99116 | -103.82454 | 38853 ft | 524 kts | 140° |
| 2026-04-22 04:10 | 49.93939 | -103.74474 | 38850 ft | 524 kts | 140° |
| 2026-04-22 04:10 | 49.88757 | -103.66520 | 38842 ft | 524 kts | 140° |
| 2026-04-22 04:11 | 49.83569 | -103.58568 | 38843 ft | 524 kts | 140° |
| 2026-04-22 04:11 | 49.78374 | -103.50638 | 38842 ft | 524 kts | 140° |
| 2026-04-22 04:12 | 49.73170 | -103.42720 | 38841 ft | 525 kts | 140° |
| 2026-04-22 04:12 | 49.67959 | -103.34814 | 38830 ft | 524 kts | 140° |
| 2026-04-22 04:13 | 49.62778 | -103.26979 | 38834 ft | 525 kts | 140° |
| 2026-04-22 04:13 | 49.57559 | -103.19112 | 38834 ft | 525 kts | 140° |
| 2026-04-22 04:14 | 49.52332 | -103.11255 | 38833 ft | 525 kts | 140° |
| 2026-04-22 04:14 | 49.47097 | -103.03415 | 38828 ft | 525 kts | 140° |
| 2026-04-22 04:15 | 49.41856 | -102.95589 | 38824 ft | 525 kts | 140° |
| 2026-04-22 04:15 | 49.36607 | -102.87772 | 38828 ft | 525 kts | 140° |
| 2026-04-22 04:16 | 49.28749 | -102.76125 | 38836 ft | 526 kts | 140° |
| 2026-04-22 04:17 | 49.23469 | -102.68326 | 38832 ft | 526 kts | 140° |
| 2026-04-22 04:17 | 49.18193 | -102.60558 | 38834 ft | 526 kts | 140° |
| 2026-04-22 04:18 | 49.12913 | -102.52806 | 38832 ft | 526 kts | 140° |
| 2026-04-22 04:18 | 49.07665 | -102.45127 | 38835 ft | 526 kts | 140° |
| 2026-04-22 04:19 | 49.02378 | -102.37408 | 38833 ft | 526 kts | 140° |
| 2026-04-22 04:19 | 48.97079 | -102.29706 | 38824 ft | 526 kts | 140° |
| 2026-04-22 04:20 | 48.91784 | -102.22045 | 38820 ft | 525 kts | 140° |
| 2026-04-22 04:20 | 48.86488 | -102.14404 | 38814 ft | 525 kts | 140° |
| 2026-04-22 04:21 | 48.81186 | -102.06777 | 38818 ft | 525 kts | 140° |
| 2026-04-22 04:21 | 48.75880 | -101.99168 | 38800 ft | 524 kts | 140° |
| 2026-04-22 04:22 | 48.73172 | -101.95290 | 38806 ft | 525 kts | 140° |
| 2026-04-22 04:22 | 48.67876 | -101.87725 | 38805 ft | 528 kts | 140° |
| 2026-04-22 04:23 | 48.62520 | -101.80095 | 38798 ft | 527 kts | 140° |
| 2026-04-22 04:23 | 48.57177 | -101.72510 | 38788 ft | 526 kts | 140° |
| 2026-04-22 04:24 | 48.51873 | -101.65008 | 38783 ft | 525 kts | 140° |
| 2026-04-22 04:24 | 48.46531 | -101.57466 | 38772 ft | 525 kts | 140° |
| 2026-04-22 04:25 | 48.41186 | -101.49949 | 38773 ft | 525 kts | 140° |
| 2026-04-22 04:25 | 48.35834 | -101.42435 | 38761 ft | 526 kts | 140° |
| 2026-04-22 04:26 | 48.30467 | -101.34930 | 38764 ft | 527 kts | 141° |
| 2026-04-22 04:26 | 48.25033 | -101.27552 | 38785 ft | 525 kts | 145° |
| 2026-04-22 04:27 | 48.19222 | -101.21103 | 38788 ft | 523 kts | 148° |
| 2026-04-22 04:27 | 48.13297 | -101.14756 | 38790 ft | 523 kts | 148° |
| 2026-04-22 04:28 | 48.07379 | -101.08386 | 38788 ft | 523 kts | 148° |
| 2026-04-22 04:28 | 48.01485 | -101.02002 | 38794 ft | 523 kts | 148° |
| 2026-04-22 04:29 | 47.95624 | -100.95648 | 38805 ft | 523 kts | 148° |
| 2026-04-22 04:29 | 47.89736 | -100.89281 | 38801 ft | 522 kts | 148° |
| 2026-04-22 04:30 | 47.83849 | -100.82942 | 38815 ft | 522 kts | 148° |
| 2026-04-22 04:30 | 47.77947 | -100.76609 | 38816 ft | 523 kts | 148° |
| 2026-04-22 04:31 | 47.72088 | -100.70336 | 38818 ft | 522 kts | 148° |
| 2026-04-22 04:31 | 47.66146 | -100.63998 | 38825 ft | 523 kts | 148° |
| 2026-04-22 04:32 | 47.60262 | -100.57740 | 38830 ft | 523 kts | 148° |
| 2026-04-22 04:32 | 47.54339 | -100.51456 | 38845 ft | 524 kts | 148° |
| 2026-04-22 04:33 | 47.48410 | -100.45182 | 38840 ft | 524 kts | 148° |
| 2026-04-22 04:33 | 47.42467 | -100.38912 | 38843 ft | 524 kts | 148° |
| 2026-04-22 04:34 | 47.36568 | -100.32704 | 38842 ft | 524 kts | 148° |
| 2026-04-22 04:34 | 47.30622 | -100.26470 | 38841 ft | 523 kts | 148° |
| 2026-04-22 04:35 | 47.24684 | -100.20256 | 38844 ft | 524 kts | 149° |
| 2026-04-22 04:35 | 47.18731 | -100.14044 | 38844 ft | 524 kts | 149° |
| 2026-04-22 04:36 | 47.12777 | -100.07851 | 38846 ft | 523 kts | 149° |
| 2026-04-22 04:36 | 47.06864 | -100.01714 | 38853 ft | 524 kts | 149° |
| 2026-04-22 04:37 | 47.03881 | -99.98626 | 38855 ft | 524 kts | 149° |
| 2026-04-22 04:37 | 46.97740 | -99.92287 | 38850 ft | 527 kts | 149° |
| 2026-04-22 04:38 | 46.91724 | -99.86091 | 38866 ft | 529 kts | 149° |
| 2026-04-22 04:38 | 46.85701 | -99.79901 | 38871 ft | 529 kts | 149° |
| 2026-04-22 04:39 | 46.79717 | -99.73767 | 38873 ft | 528 kts | 149° |
| 2026-04-22 04:39 | 46.73694 | -99.67615 | 38881 ft | 529 kts | 149° |
| 2026-04-22 04:40 | 46.67654 | -99.61464 | 38873 ft | 529 kts | 149° |
| 2026-04-22 04:40 | 46.61613 | -99.55326 | 38876 ft | 529 kts | 149° |
| 2026-04-22 04:41 | 46.55572 | -99.49209 | 38885 ft | 529 kts | 149° |
| 2026-04-22 04:41 | 46.49555 | -99.43127 | 38891 ft | 529 kts | 149° |
| 2026-04-22 04:42 | 46.43497 | -99.37026 | 38888 ft | 530 kts | 149° |
| 2026-04-22 04:42 | 46.37425 | -99.30927 | 38891 ft | 530 kts | 149° |
| 2026-04-22 04:43 | 46.31400 | -99.24889 | 38887 ft | 530 kts | 149° |
| 2026-04-22 04:43 | 46.25324 | -99.18817 | 38891 ft | 530 kts | 149° |
| 2026-04-22 04:44 | 46.19250 | -99.12764 | 38888 ft | 531 kts | 150° |
| 2026-04-22 04:44 | 46.14189 | -99.07731 | 38891 ft | 531 kts | 150° |
| 2026-04-22 04:45 | 46.07097 | -99.00704 | 38889 ft | 531 kts | 150° |
| 2026-04-22 04:45 | 46.01976 | -98.95645 | 38890 ft | 532 kts | 150° |
| 2026-04-22 04:46 | 45.95901 | -98.89653 | 38888 ft | 532 kts | 150° |
| 2026-04-22 04:46 | 45.89804 | -98.83656 | 38884 ft | 530 kts | 150° |
| 2026-04-22 04:47 | 45.83692 | -98.77662 | 38891 ft | 532 kts | 150° |
| 2026-04-22 04:47 | 45.77566 | -98.71666 | 38890 ft | 533 kts | 150° |
| 2026-04-22 04:48 | 45.71434 | -98.65684 | 38887 ft | 533 kts | 150° |
| 2026-04-22 04:48 | 45.65343 | -98.59762 | 38890 ft | 533 kts | 150° |
| 2026-04-22 04:49 | 45.59204 | -98.53804 | 38887 ft | 533 kts | 150° |
| 2026-04-22 04:49 | 45.53066 | -98.47859 | 38890 ft | 533 kts | 150° |
| 2026-04-22 04:50 | 45.46910 | -98.41918 | 38889 ft | 533 kts | 150° |
| 2026-04-22 04:50 | 45.40806 | -98.36045 | 38888 ft | 533 kts | 150° |
| 2026-04-22 04:51 | 45.34604 | -98.30243 | 38891 ft | 532 kts | 151° |
| 2026-04-22 04:51 | 45.28399 | -98.24526 | 38886 ft | 531 kts | 151° |
| 2026-04-22 04:52 | 45.22198 | -98.18815 | 38890 ft | 530 kts | 151° |
| 2026-04-22 04:52 | 45.18968 | -98.15835 | 38888 ft | 530 kts | 151° |
| 2026-04-22 04:53 | 45.12830 | -98.10178 | 38888 ft | 530 kts | 151° |
| 2026-04-22 04:53 | 45.06640 | -98.04484 | 38890 ft | 529 kts | 151° |
| 2026-04-22 04:54 | 45.00468 | -97.98819 | 38891 ft | 528 kts | 151° |
| 2026-04-22 04:54 | 44.94283 | -97.93163 | 38889 ft | 530 kts | 151° |
| 2026-04-22 04:55 | 44.88093 | -97.87523 | 38893 ft | 530 kts | 150° |
| 2026-04-22 04:55 | 44.81902 | -97.81891 | 38909 ft | 528 kts | 150° |
| 2026-04-22 04:56 | 44.75728 | -97.76291 | 38905 ft | 528 kts | 150° |
| 2026-04-22 04:56 | 44.69606 | -97.70744 | 38910 ft | 527 kts | 150° |
| 2026-04-22 04:57 | 44.63436 | -97.65174 | 38916 ft | 527 kts | 150° |
| 2026-04-22 04:57 | 44.57269 | -97.59622 | 38914 ft | 526 kts | 151° |
| 2026-04-22 04:58 | 44.51097 | -97.54078 | 38916 ft | 526 kts | 151° |
| 2026-04-22 04:58 | 44.44930 | -97.48554 | 38915 ft | 525 kts | 151° |
| 2026-04-22 04:59 | 44.38773 | -97.43056 | 38915 ft | 525 kts | 151° |
| 2026-04-22 04:59 | 44.32618 | -97.37568 | 38919 ft | 525 kts | 151° |
| 2026-04-22 05:00 | 44.26437 | -97.32072 | 38916 ft | 526 kts | 151° |
| 2026-04-22 05:00 | 44.20258 | -97.26595 | 38918 ft | 527 kts | 151° |
| 2026-04-22 05:01 | 44.14069 | -97.21119 | 38928 ft | 527 kts | 151° |
| 2026-04-22 05:01 | 44.07917 | -97.15688 | 38922 ft | 527 kts | 151° |
| 2026-04-22 05:02 | 44.01711 | -97.10226 | 38926 ft | 527 kts | 151° |
| 2026-04-22 05:02 | 43.95509 | -97.04782 | 38934 ft | 526 kts | 150° |
| 2026-04-22 05:03 | 43.89337 | -96.99376 | 38926 ft | 524 kts | 150° |
| 2026-04-22 05:03 | 43.83164 | -96.93983 | 38931 ft | 525 kts | 150° |
| 2026-04-22 05:04 | 43.76999 | -96.88612 | 38931 ft | 526 kts | 150° |
| 2026-04-22 05:04 | 43.70809 | -96.83224 | 38936 ft | 526 kts | 150° |
| 2026-04-22 05:05 | 43.64788 | -96.77414 | 38942 ft | 529 kts | 142° |
| 2026-04-22 05:05 | 43.59537 | -96.70331 | 38941 ft | 532 kts | 134° |
| 2026-04-22 05:06 | 43.54563 | -96.62774 | 38939 ft | 532 kts | 133° |
| 2026-04-22 05:06 | 43.49564 | -96.55239 | 38933 ft | 532 kts | 134° |
| 2026-04-22 05:07 | 43.44520 | -96.47726 | 38938 ft | 533 kts | 134° |
| 2026-04-22 05:07 | 43.41917 | -96.43871 | 38936 ft | 533 kts | 134° |
| 2026-04-22 05:08 | 43.36853 | -96.36396 | 38934 ft | 533 kts | 134° |
| 2026-04-22 05:08 | 43.31828 | -96.28990 | 38938 ft | 532 kts | 134° |
| 2026-04-22 05:09 | 43.26780 | -96.21563 | 38938 ft | 532 kts | 134° |
| 2026-04-22 05:09 | 43.21718 | -96.14137 | 38937 ft | 532 kts | 134° |
| 2026-04-22 05:10 | 43.16661 | -96.06736 | 38935 ft | 531 kts | 134° |
| 2026-04-22 05:10 | 43.11638 | -95.99401 | 38935 ft | 530 kts | 134° |
| 2026-04-22 05:11 | 43.06574 | -95.92032 | 38932 ft | 533 kts | 134° |
| 2026-04-22 05:11 | 43.01487 | -95.84648 | 38939 ft | 534 kts | 134° |
| 2026-04-22 05:12 | 42.96390 | -95.77263 | 38939 ft | 532 kts | 134° |
| 2026-04-22 05:12 | 42.91311 | -95.69923 | 38946 ft | 531 kts | 134° |
| 2026-04-22 05:13 | 42.86254 | -95.62637 | 38948 ft | 531 kts | 134° |
| 2026-04-22 05:13 | 42.81158 | -95.55316 | 38955 ft | 531 kts | 134° |
| 2026-04-22 05:14 | 42.76074 | -95.48030 | 38955 ft | 530 kts | 134° |
| 2026-04-22 05:14 | 42.71009 | -95.40786 | 38954 ft | 530 kts | 134° |
| 2026-04-22 05:15 | 42.65910 | -95.33514 | 38959 ft | 530 kts | 134° |
| 2026-04-22 05:15 | 42.60808 | -95.26254 | 38970 ft | 531 kts | 134° |
| 2026-04-22 05:16 | 42.55722 | -95.19033 | 38975 ft | 528 kts | 134° |
| 2026-04-22 05:16 | 42.50680 | -95.11898 | 38972 ft | 527 kts | 134° |
| 2026-04-22 05:17 | 42.45604 | -95.04727 | 38974 ft | 528 kts | 134° |
| 2026-04-22 05:17 | 42.40499 | -94.97541 | 38975 ft | 529 kts | 134° |
| 2026-04-22 05:18 | 42.32826 | -94.86804 | 38972 ft | 529 kts | 134° |
| 2026-04-22 05:18 | 42.27707 | -94.79657 | 38964 ft | 529 kts | 134° |
| 2026-04-22 05:19 | 42.22573 | -94.72504 | 38968 ft | 530 kts | 134° |
| 2026-04-22 05:19 | 42.17469 | -94.65405 | 38962 ft | 530 kts | 134° |
| 2026-04-22 05:20 | 42.12328 | -94.58277 | 38963 ft | 529 kts | 134° |
| 2026-04-22 05:20 | 42.07186 | -94.51167 | 38964 ft | 530 kts | 134° |
| 2026-04-22 05:21 | 42.02026 | -94.44046 | 38958 ft | 531 kts | 134° |
| 2026-04-22 05:21 | 41.96900 | -94.36992 | 38953 ft | 530 kts | 134° |
| 2026-04-22 05:22 | 41.91747 | -94.29917 | 38946 ft | 529 kts | 134° |
| 2026-04-22 05:22 | 41.89054 | -94.26226 | 38942 ft | 529 kts | 134° |
| 2026-04-22 05:23 | 41.83895 | -94.19171 | 38941 ft | 529 kts | 134° |
| 2026-04-22 05:23 | 41.78732 | -94.12122 | 38932 ft | 530 kts | 134° |
| 2026-04-22 05:24 | 41.73565 | -94.05093 | 38932 ft | 529 kts | 134° |
| 2026-04-22 05:24 | 41.68397 | -93.98075 | 38944 ft | 529 kts | 134° |
| 2026-04-22 05:25 | 41.63217 | -93.91059 | 38947 ft | 530 kts | 134° |
| 2026-04-22 05:25 | 41.58029 | -93.84045 | 38959 ft | 530 kts | 134° |
| 2026-04-22 05:26 | 41.52867 | -93.77088 | 38961 ft | 530 kts | 134° |
| 2026-04-22 05:26 | 41.47670 | -93.70096 | 38963 ft | 530 kts | 134° |
| 2026-04-22 05:27 | 41.42178 | -93.63562 | 38969 ft | 530 kts | 143° |
| 2026-04-22 05:27 | 41.35967 | -93.58251 | 38971 ft | 530 kts | 149° |
| 2026-04-22 05:28 | 41.29654 | -93.53153 | 38977 ft | 531 kts | 148° |
| 2026-04-22 05:28 | 41.23358 | -93.48015 | 38984 ft | 531 kts | 148° |
| 2026-04-22 05:29 | 41.17124 | -93.42884 | 38980 ft | 530 kts | 148° |
| 2026-04-22 05:29 | 41.10843 | -93.37714 | 38993 ft | 530 kts | 148° |
| 2026-04-22 05:30 | 41.04562 | -93.32562 | 38993 ft | 531 kts | 147° |
| 2026-04-22 05:30 | 40.98240 | -93.27388 | 38992 ft | 536 kts | 147° |
| 2026-04-22 05:31 | 40.91910 | -93.22223 | 38989 ft | 538 kts | 147° |
| 2026-04-22 05:31 | 40.62698 | -92.98548 | 38994 ft | 534 kts | 147° |
| 2026-04-22 05:32 | 40.11813 | -92.57796 | 39036 ft | 537 kts | 144° |
| 2026-04-22 05:32 | 39.88307 | -92.34043 | 39140 ft | 535 kts | 139° |
| 2026-04-22 05:32 | 39.64530 | -92.10617 | 39097 ft | 535 kts | 140° |
| 2026-04-22 05:33 | 39.17214 | -91.64474 | 39092 ft | 531 kts | 140° |
| 2026-04-22 05:33 | 38.77509 | -91.26380 | 39112 ft | 528 kts | 141° |
| 2026-04-22 05:34 | 38.23179 | -90.75123 | 39117 ft | 525 kts | 141° |
| 2026-04-22 05:34 | 37.83656 | -90.38431 | 39152 ft | 525 kts | 141° |
| 2026-04-22 05:35 | 37.36366 | -89.96133 | 39155 ft | 523 kts | 143° |
| 2026-04-22 05:35 | 37.26995 | -89.87911 | 39166 ft | 521 kts | 144° |
| 2026-04-22 05:36 | 37.21032 | -89.82704 | 39166 ft | 521 kts | 144° |
| 2026-04-22 05:36 | 37.15085 | -89.77520 | 39165 ft | 519 kts | 144° |
| 2026-04-22 05:37 | 37.09145 | -89.72346 | 39167 ft | 519 kts | 145° |
| 2026-04-22 05:37 | 37.06041 | -89.69647 | 39168 ft | 519 kts | 145° |
| 2026-04-22 05:38 | 37.00141 | -89.64524 | 39176 ft | 518 kts | 145° |
| 2026-04-22 05:38 | 36.94215 | -89.59390 | 39176 ft | 517 kts | 146° |
| 2026-04-22 05:39 | 36.88292 | -89.54268 | 39175 ft | 517 kts | 146° |
| 2026-04-22 05:39 | 36.82373 | -89.49161 | 39175 ft | 517 kts | 146° |
| 2026-04-22 05:40 | 36.76495 | -89.44095 | 39175 ft | 515 kts | 146° |
| 2026-04-22 05:40 | 36.70592 | -89.39015 | 39181 ft | 515 kts | 146° |
| 2026-04-22 05:41 | 36.64687 | -89.33946 | 39183 ft | 515 kts | 146° |
| 2026-04-22 05:41 | 36.58779 | -89.28881 | 39187 ft | 515 kts | 147° |
| 2026-04-22 05:42 | 36.52872 | -89.23829 | 39189 ft | 515 kts | 147° |
| 2026-04-22 05:42 | 36.46963 | -89.18785 | 39193 ft | 515 kts | 147° |
| 2026-04-22 05:43 | 36.41052 | -89.13746 | 39190 ft | 515 kts | 147° |
| 2026-04-22 05:43 | 36.35147 | -89.08722 | 39190 ft | 514 kts | 147° |
| 2026-04-22 05:44 | 36.29272 | -89.03734 | 39190 ft | 514 kts | 147° |
| 2026-04-22 05:44 | 36.23370 | -88.98727 | 39190 ft | 514 kts | 147° |
| 2026-04-22 05:45 | 36.17455 | -88.93725 | 39195 ft | 514 kts | 148° |
| 2026-04-22 05:45 | 36.11541 | -88.88729 | 39202 ft | 514 kts | 148° |
| 2026-04-22 05:46 | 36.05667 | -88.83775 | 39211 ft | 514 kts | 148° |
| 2026-04-22 05:46 | 35.99738 | -88.78827 | 39201 ft | 513 kts | 150° |
| 2026-04-22 05:47 | 35.93840 | -88.73857 | 39218 ft | 512 kts | 149° |
| 2026-04-22 05:47 | 35.88001 | -88.68926 | 39220 ft | 511 kts | 149° |
| 2026-04-22 05:48 | 35.82110 | -88.63986 | 39220 ft | 512 kts | 149° |
| 2026-04-22 05:48 | 35.76203 | -88.59054 | 39229 ft | 512 kts | 149° |
| 2026-04-22 05:49 | 35.70304 | -88.54136 | 39230 ft | 513 kts | 150° |
| 2026-04-22 05:49 | 35.64393 | -88.49215 | 39232 ft | 512 kts | 149° |
| 2026-04-22 05:50 | 35.58492 | -88.44303 | 39232 ft | 512 kts | 149° |
| 2026-04-22 05:50 | 35.52620 | -88.39438 | 39241 ft | 512 kts | 150° |
| 2026-04-22 05:51 | 35.46703 | -88.34551 | 39240 ft | 513 kts | 150° |
| 2026-04-22 05:51 | 35.40778 | -88.29662 | 39240 ft | 512 kts | 150° |
| 2026-04-22 05:52 | 35.34859 | -88.24792 | 39241 ft | 512 kts | 150° |
| 2026-04-22 05:52 | 35.30891 | -88.21549 | 39238 ft | 512 kts | 150° |
| 2026-04-22 05:53 | 35.25801 | -88.17403 | 39227 ft | 512 kts | 151° |
| 2026-04-22 05:53 | 35.19877 | -88.12572 | 39232 ft | 511 kts | 151° |
| 2026-04-22 05:54 | 35.14002 | -88.07761 | 39222 ft | 511 kts | 151° |
| 2026-04-22 05:54 | 35.08351 | -88.02442 | 39231 ft | 517 kts | 139° |
| 2026-04-22 05:55 | 35.03214 | -87.96276 | 39239 ft | 518 kts | 139° |
| 2026-04-22 05:55 | 34.98062 | -87.90109 | 39248 ft | 519 kts | 139° |
| 2026-04-22 05:56 | 34.92876 | -87.83975 | 39246 ft | 518 kts | 140° |
| 2026-04-22 05:56 | 34.87694 | -87.77886 | 39250 ft | 517 kts | 140° |
| 2026-04-22 05:57 | 34.82543 | -87.71852 | 39257 ft | 517 kts | 140° |
| 2026-04-22 05:57 | 34.77359 | -87.65781 | 39257 ft | 517 kts | 140° |
| 2026-04-22 05:58 | 34.72175 | -87.59719 | 39256 ft | 516 kts | 140° |
| 2026-04-22 05:58 | 34.66992 | -87.53673 | 39254 ft | 516 kts | 140° |
| 2026-04-22 05:59 | 34.61842 | -87.47673 | 39264 ft | 516 kts | 140° |
| 2026-04-22 05:59 | 34.56648 | -87.41629 | 39273 ft | 517 kts | 140° |
| 2026-04-22 06:00 | 34.51454 | -87.35597 | 39272 ft | 517 kts | 140° |
| 2026-04-22 06:00 | 34.46242 | -87.29559 | 39276 ft | 517 kts | 140° |
| 2026-04-22 06:01 | 34.41061 | -87.23571 | 39271 ft | 520 kts | 139° |
| 2026-04-22 06:01 | 34.35796 | -87.17492 | 39289 ft | 523 kts | 139° |
| 2026-04-22 06:02 | 34.30524 | -87.11410 | 39266 ft | 522 kts | 139° |
| 2026-04-22 06:02 | 34.25263 | -87.05359 | 39268 ft | 521 kts | 140° |
| 2026-04-22 06:03 | 34.20006 | -86.99324 | 39274 ft | 521 kts | 140° |
| 2026-04-22 06:03 | 34.14778 | -86.93333 | 39273 ft | 522 kts | 140° |
| 2026-04-22 06:04 | 34.09510 | -86.87307 | 39279 ft | 521 kts | 140° |
| 2026-04-22 06:04 | 34.04235 | -86.81284 | 39274 ft | 521 kts | 136° |
| 2026-04-22 06:05 | 33.99020 | -86.75219 | 39272 ft | 521 kts | 137° |
| 2026-04-22 06:05 | 33.93787 | -86.69194 | 39294 ft | 523 kts | 141° |
| 2026-04-22 06:06 | 33.88435 | -86.63273 | 39279 ft | 525 kts | 141° |
| 2026-04-22 06:06 | 33.83103 | -86.57287 | 39277 ft | 523 kts | 141° |
| 2026-04-22 06:07 | 33.77821 | -86.51305 | 39293 ft | 522 kts | 141° |
| 2026-04-22 06:07 | 33.72533 | -86.45313 | 39292 ft | 522 kts | 141° |
| 2026-04-22 06:08 | 33.69761 | -86.42180 | 39291 ft | 522 kts | 141° |
| 2026-04-22 06:08 | 33.64461 | -86.36205 | 39286 ft | 522 kts | 141° |
| 2026-04-22 06:09 | 33.59151 | -86.30232 | 39285 ft | 523 kts | 141° |
| 2026-04-22 06:09 | 33.53845 | -86.24277 | 39288 ft | 523 kts | 141° |
| 2026-04-22 06:10 | 33.48557 | -86.18354 | 39293 ft | 523 kts | 141° |
| 2026-04-22 06:10 | 33.43237 | -86.12399 | 39274 ft | 523 kts | 141° |
| 2026-04-22 06:11 | 33.37911 | -86.06446 | 39272 ft | 523 kts | 141° |
| 2026-04-22 06:11 | 33.32563 | -86.00487 | 39278 ft | 524 kts | 141° |
| 2026-04-22 06:12 | 33.27220 | -85.94542 | 39277 ft | 525 kts | 141° |
| 2026-04-22 06:12 | 33.21907 | -85.88637 | 39279 ft | 525 kts | 142° |
| 2026-04-22 06:13 | 33.16538 | -85.82684 | 39278 ft | 526 kts | 142° |
| 2026-04-22 06:13 | 33.11166 | -85.76737 | 39292 ft | 527 kts | 142° |
| 2026-04-22 06:14 | 33.05792 | -85.70797 | 39284 ft | 527 kts | 142° |
| 2026-04-22 06:14 | 33.00402 | -85.64854 | 39292 ft | 528 kts | 142° |
| 2026-04-22 06:15 | 32.95038 | -85.58947 | 39284 ft | 529 kts | 142° |
| 2026-04-22 06:15 | 32.89623 | -85.52992 | 39291 ft | 529 kts | 142° |
| 2026-04-22 06:16 | 32.84207 | -85.47044 | 39277 ft | 530 kts | 142° |
| 2026-04-22 06:16 | 32.78776 | -85.41098 | 39293 ft | 529 kts | 142° |
| 2026-04-22 06:17 | 32.73352 | -85.35164 | 39293 ft | 529 kts | 142° |
| 2026-04-22 06:17 | 32.67927 | -85.29241 | 39299 ft | 530 kts | 142° |
| 2026-04-22 06:18 | 32.62501 | -85.23327 | 39296 ft | 530 kts | 142° |
| 2026-04-22 06:18 | 32.57104 | -85.17453 | 39286 ft | 530 kts | 142° |
| 2026-04-22 06:19 | 32.51667 | -85.11548 | 39288 ft | 529 kts | 142° |
| 2026-04-22 06:19 | 32.46213 | -85.05636 | 39279 ft | 530 kts | 142° |
| 2026-04-22 06:20 | 32.41691 | -85.00740 | 39265 ft | 530 kts | 142° |
| 2026-04-22 06:20 | 32.35362 | -84.93898 | 39264 ft | 530 kts | 142° |
| 2026-04-22 06:21 | 32.29909 | -84.88014 | 39255 ft | 531 kts | 142° |
| 2026-04-22 06:21 | 32.24453 | -84.82142 | 39254 ft | 530 kts | 142° |
| 2026-04-22 06:22 | 32.19914 | -84.77261 | 39261 ft | 530 kts | 142° |
| 2026-04-22 06:22 | 32.14455 | -84.71399 | 39268 ft | 531 kts | 142° |
| 2026-04-22 06:23 | 32.11613 | -84.68351 | 39265 ft | 531 kts | 142° |
| 2026-04-22 06:23 | 32.06133 | -84.62483 | 39270 ft | 532 kts | 142° |
| 2026-04-22 06:24 | 31.97904 | -84.53690 | 39277 ft | 531 kts | 143° |
| 2026-04-22 06:25 | 31.92437 | -84.47864 | 39280 ft | 533 kts | 143° |
| 2026-04-22 06:25 | 31.86929 | -84.41999 | 39282 ft | 534 kts | 143° |
| 2026-04-22 06:26 | 31.81417 | -84.36142 | 39281 ft | 533 kts | 143° |
| 2026-04-22 06:26 | 31.75906 | -84.30296 | 39289 ft | 533 kts | 143° |
| 2026-04-22 06:27 | 31.70392 | -84.24451 | 39280 ft | 532 kts | 143° |
| 2026-04-22 06:27 | 31.64923 | -84.18667 | 39295 ft | 532 kts | 143° |
| 2026-04-22 06:28 | 31.59417 | -84.12856 | 39300 ft | 533 kts | 143° |
| 2026-04-22 06:28 | 31.53890 | -84.07034 | 39305 ft | 533 kts | 143° |
| 2026-04-22 06:29 | 31.48366 | -84.01221 | 39303 ft | 533 kts | 143° |
| 2026-04-22 06:29 | 31.42844 | -83.95418 | 39305 ft | 533 kts | 143° |
| 2026-04-22 06:30 | 31.37319 | -83.89624 | 39300 ft | 532 kts | 143° |
| 2026-04-22 06:30 | 31.31831 | -83.83879 | 39308 ft | 533 kts | 143° |
| 2026-04-22 06:31 | 31.26308 | -83.78104 | 39303 ft | 533 kts | 143° |
| 2026-04-22 06:31 | 31.20778 | -83.72333 | 39306 ft | 533 kts | 143° |
| 2026-04-22 06:32 | 31.15242 | -83.66563 | 39302 ft | 533 kts | 143° |
| 2026-04-22 06:32 | 31.09703 | -83.60806 | 39306 ft | 532 kts | 143° |
| 2026-04-22 06:33 | 31.04199 | -83.55092 | 39304 ft | 533 kts | 143° |
| 2026-04-22 06:33 | 30.98652 | -83.49339 | 39301 ft | 534 kts | 143° |
| 2026-04-22 06:34 | 30.93092 | -83.43583 | 39296 ft | 534 kts | 143° |
| 2026-04-22 06:34 | 30.87522 | -83.37823 | 39296 ft | 535 kts | 143° |
| 2026-04-22 06:35 | 30.81950 | -83.32072 | 39296 ft | 535 kts | 143° |
| 2026-04-22 06:35 | 30.76369 | -83.26351 | 39304 ft | 534 kts | 144° |
| 2026-04-22 06:36 | 30.70660 | -83.20913 | 39306 ft | 532 kts | 147° |
| 2026-04-22 06:36 | 30.64857 | -83.15555 | 39304 ft | 533 kts | 147° |
| 2026-04-22 06:37 | 30.59060 | -83.10165 | 39305 ft | 533 kts | 146° |
| 2026-04-22 06:37 | 30.53289 | -83.04755 | 39295 ft | 533 kts | 146° |
| 2026-04-22 06:38 | 30.47553 | -82.99370 | 39295 ft | 533 kts | 146° |
| 2026-04-22 06:38 | 30.44509 | -82.96514 | 39295 ft | 533 kts | 146° |
| 2026-04-22 06:39 | 30.38774 | -82.91143 | 39291 ft | 533 kts | 146° |
| 2026-04-22 06:39 | 30.32999 | -82.85750 | 39282 ft | 533 kts | 146° |
| 2026-04-22 06:40 | 30.27221 | -82.80363 | 39286 ft | 533 kts | 146° |
| 2026-04-22 06:40 | 30.21437 | -82.74976 | 39296 ft | 534 kts | 146° |
| 2026-04-22 06:41 | 30.15648 | -82.69595 | 39295 ft | 534 kts | 146° |
| 2026-04-22 06:41 | 30.09857 | -82.64218 | 39293 ft | 533 kts | 146° |
| 2026-04-22 06:42 | 30.04101 | -82.58885 | 39293 ft | 534 kts | 146° |
| 2026-04-22 06:42 | 29.98284 | -82.53505 | 39296 ft | 535 kts | 146° |
| 2026-04-22 06:42 | 29.95358 | -82.50802 | 38729 ft | 544 kts | 146° |
| 2026-04-22 06:43 | 29.92399 | -82.48071 | 38067 ft | 542 kts | 146° |
| 2026-04-22 06:43 | 29.89467 | -82.45362 | 37419 ft | 536 kts | 146° |
| 2026-04-22 06:43 | 29.86613 | -82.42725 | 36761 ft | 530 kts | 146° |
| 2026-04-22 06:43 | 29.83752 | -82.40082 | 35951 ft | 525 kts | 146° |
| 2026-04-22 06:44 | 29.80892 | -82.37448 | 34796 ft | 529 kts | 146° |
| 2026-04-22 06:44 | 29.77995 | -82.34788 | 33449 ft | 536 kts | 145° |
| 2026-04-22 06:44 | 29.75073 | -82.32107 | 32325 ft | 536 kts | 145° |
| 2026-04-22 06:44 | 29.72224 | -82.29489 | 31547 ft | 529 kts | 144° |
| 2026-04-22 06:45 | 29.69374 | -82.26869 | 30858 ft | 520 kts | 144° |
| 2026-04-22 06:45 | 29.66562 | -82.24286 | 30181 ft | 513 kts | 144° |
| 2026-04-22 06:45 | 29.63787 | -82.21740 | 29472 ft | 507 kts | 144° |
| 2026-04-22 06:45 | 29.61144 | -82.19318 | 28790 ft | 502 kts | 144° |
| 2026-04-22 06:46 | 29.58463 | -82.16864 | 28051 ft | 497 kts | 144° |
| 2026-04-22 06:46 | 29.55764 | -82.14397 | 27202 ft | 495 kts | 144° |
| 2026-04-22 06:46 | 29.53074 | -82.11941 | 26338 ft | 493 kts | 144° |
| 2026-04-22 06:46 | 29.50398 | -82.09500 | 25522 ft | 489 kts | 144° |
| 2026-04-22 06:47 | 29.47747 | -82.07080 | 24794 ft | 483 kts | 144° |
| 2026-04-22 06:47 | 29.45122 | -82.04685 | 24106 ft | 477 kts | 144° |
| 2026-04-22 06:47 | 29.42538 | -82.02329 | 23426 ft | 471 kts | 143° |
| 2026-04-22 06:47 | 29.39993 | -82.00009 | 22766 ft | 464 kts | 143° |
| 2026-04-22 06:48 | 29.37480 | -81.97721 | 22107 ft | 458 kts | 143° |
| 2026-04-22 06:48 | 29.35034 | -81.95497 | 21430 ft | 453 kts | 143° |
| 2026-04-22 06:48 | 29.32579 | -81.93266 | 20777 ft | 447 kts | 143° |
| 2026-04-22 06:48 | 29.30155 | -81.91064 | 20150 ft | 441 kts | 143° |
| 2026-04-22 06:49 | 29.27764 | -81.88892 | 19546 ft | 435 kts | 143° |
| 2026-04-22 06:49 | 29.25400 | -81.86746 | 18876 ft | 430 kts | 143° |
| 2026-04-22 06:49 | 29.23062 | -81.84626 | 18210 ft | 426 kts | 142° |
| 2026-04-22 06:49 | 29.20752 | -81.82532 | 17533 ft | 422 kts | 142° |
| 2026-04-22 06:50 | 29.18463 | -81.80459 | 16855 ft | 417 kts | 142° |
| 2026-04-22 06:50 | 29.16196 | -81.78409 | 16182 ft | 413 kts | 142° |
| 2026-04-22 06:50 | 29.13951 | -81.76378 | 15518 ft | 409 kts | 142° |
| 2026-04-22 06:50 | 29.11728 | -81.74368 | 14838 ft | 405 kts | 142° |
| 2026-04-22 06:51 | 29.09525 | -81.72377 | 14174 ft | 401 kts | 141° |
| 2026-04-22 06:51 | 29.07344 | -81.70408 | 13507 ft | 398 kts | 141° |
| 2026-04-22 06:51 | 29.05203 | -81.68473 | 12866 ft | 395 kts | 141° |
| 2026-04-22 06:51 | 29.03057 | -81.66537 | 12239 ft | 391 kts | 141° |
| 2026-04-22 06:52 | 29.00935 | -81.64624 | 11642 ft | 387 kts | 141° |
| 2026-04-22 06:52 | 28.98830 | -81.62726 | 11049 ft | 383 kts | 140° |
| 2026-04-22 06:52 | 28.96754 | -81.60854 | 10446 ft | 378 kts | 140° |
| 2026-04-22 06:52 | 28.94692 | -81.58997 | 9717 ft | 377 kts | 140° |
| 2026-04-22 06:53 | 28.92641 | -81.57154 | 9135 ft | 372 kts | 140° |
| 2026-04-22 06:53 | 28.91301 | -81.55950 | 8760 ft | 368 kts | 140° |
| 2026-04-22 06:53 | 28.90574 | -81.55296 | 8546 ft | 367 kts | 140° |
| 2026-04-22 06:53 | 28.88574 | -81.53498 | 7878 ft | 365 kts | 140° |
| 2026-04-22 06:54 | 28.86593 | -81.51721 | 7384 ft | 358 kts | 140° |
| 2026-04-22 06:54 | 28.84648 | -81.49975 | 6880 ft | 351 kts | 140° |
| 2026-04-22 06:54 | 28.82742 | -81.48262 | 6363 ft | 346 kts | 140° |
| 2026-04-22 06:54 | 28.80863 | -81.46572 | 5871 ft | 341 kts | 140° |
| 2026-04-22 06:55 | 28.79015 | -81.44914 | 5429 ft | 332 kts | 140° |
| 2026-04-22 06:55 | 28.77311 | -81.43392 | 5186 ft | 292 kts | 140° |
| 2026-04-22 06:55 | 28.75796 | -81.42039 | 4960 ft | 261 kts | 139° |
| 2026-04-22 06:55 | 28.74433 | -81.40819 | 4768 ft | 236 kts | 139° |
| 2026-04-22 06:56 | 28.73202 | -81.39716 | 4611 ft | 217 kts | 139° |
| 2026-04-22 06:56 | 28.72047 | -81.38679 | 4531 ft | 206 kts | 139° |
| 2026-04-22 06:56 | 28.70956 | -81.37701 | 4494 ft | 192 kts | 139° |
| 2026-04-22 06:56 | 28.69958 | -81.36807 | 4377 ft | 180 kts | 139° |
| 2026-04-22 06:57 | 28.68994 | -81.35942 | 4148 ft | 174 kts | 138° |
| 2026-04-22 06:57 | 28.68050 | -81.35097 | 3885 ft | 170 kts | 138° |
| 2026-04-22 06:57 | 28.67122 | -81.34267 | 3786 ft | 170 kts | 138° |
| 2026-04-22 06:57 | 28.66186 | -81.33429 | 3700 ft | 171 kts | 138° |
| 2026-04-22 06:58 | 28.65233 | -81.32624 | 3609 ft | 172 kts | 149° |
| 2026-04-22 06:58 | 28.64032 | -81.32436 | 3551 ft | 179 kts | 178° |
| 2026-04-22 06:58 | 28.62770 | -81.32444 | 3457 ft | 180 kts | 175° |
| 2026-04-22 06:58 | 28.61519 | -81.32426 | 3246 ft | 178 kts | 175° |
| 2026-04-22 06:59 | 28.60281 | -81.32408 | 3047 ft | 177 kts | 175° |
| 2026-04-22 06:59 | 28.59050 | -81.32390 | 2824 ft | 177 kts | 175° |
| 2026-04-22 06:59 | 28.57826 | -81.32374 | 2603 ft | 179 kts | 175° |
| 2026-04-22 06:59 | 28.56577 | -81.32358 | 2376 ft | 178 kts | 176° |
| 2026-04-22 07:00 | 28.55363 | -81.32345 | 2148 ft | 168 kts | 177° |
| 2026-04-22 07:00 | 28.54228 | -81.32332 | 1922 ft | 160 kts | 177° |
| 2026-04-22 07:00 | 28.53160 | -81.32321 | 1696 ft | 147 kts | 178° |
| 2026-04-22 07:00 | 28.52158 | -81.32310 | 1541 ft | 142 kts | 177° |
| 2026-04-22 07:01 | 28.51181 | -81.32300 | 1353 ft | 140 kts | 178° |
| 2026-04-22 07:01 | 28.50212 | -81.32289 | 1156 ft | 139 kts | 178° |
| 2026-04-22 07:01 | 28.49248 | -81.32278 | 970 ft | 138 kts | 178° |
| 2026-04-22 07:01 | 28.48288 | -81.32268 | 787 ft | 138 kts | 178° |
| 2026-04-22 07:02 | 28.47331 | -81.32258 | 604 ft | 137 kts | 179° |
| 2026-04-22 07:02 | 28.46381 | -81.32247 | 420 ft | 136 kts | 179° |
| 2026-04-22 07:02 | 28.45448 | -81.32237 | 261 ft | 136 kts | 179° |
| 2026-04-22 07:02 | 28.44505 | -81.32228 | 105 ft | 135 kts | 179° |
| 2026-04-22 07:03 | 28.43654 | -81.32217 | 105 ft | 105 kts | 179° |
| 2026-04-22 07:03 | 28.43048 | -81.32213 | 102 ft | 69 kts | 179° |
| 2026-04-22 07:03 | 28.42674 | -81.32207 | 106 ft | 45 kts | 179° |
| 2026-04-22 07:03 | 28.42391 | -81.32140 | 111 ft | 40 kts | 140° |
| 2026-04-22 07:04 | 28.42268 | -81.31901 | 104 ft | 29 kts | 95° |
| 2026-04-22 07:04 | 28.42181 | -81.31850 | 106 ft | 14 kts | 206° |
| 2026-04-22 07:04 | 28.42084 | -81.31877 | 106 ft | 15 kts | 181° |
| 2026-04-22 07:04 | 28.41954 | -81.31877 | 104 ft | 23 kts | 180° |
| 2026-04-22 07:05 | 28.41803 | -81.31874 | 103 ft | 0 kts | 179° |
| 2026-04-22 07:06 | 28.41799 | -81.31874 | 103 ft | 4 kts | 179° |
| 2026-04-22 07:07 | 28.41667 | -81.31876 | 105 ft | 28 kts | 182° |
| 2026-04-22 07:07 | 28.41478 | -81.31910 | 105 ft | 28 kts | 187° |
| 2026-04-22 07:07 | 28.41342 | -81.31896 | 104 ft | 10 kts | 132° |
| 2026-04-22 07:07 | 28.41329 | -81.31811 | 102 ft | 13 kts | 87° |
| 2026-04-22 07:08 | 28.41332 | -81.31738 | 102 ft | 11 kts | 88° |
| 2026-04-22 07:08 | 28.41331 | -81.31660 | 99 ft | 8 kts | 94° |
| 2026-04-22 07:08 | 28.41325 | -81.31641 | 99 ft | 1 kts | 122° |
| 2026-04-22 07:08 | 28.41324 | -81.31640 | 99 ft | 1 kts | 124° |
| 2026-04-22 07:09 | 28.41302 | -81.31626 | 99 ft | 1 kts | 162° |
| 2026-04-22 07:09 | 28.41282 | -81.31626 | 99 ft | 6 kts | 188° |
| 2026-04-22 07:09 | 28.41259 | -81.31632 | 102 ft | 4 kts | 189° |
| 2026-04-22 07:09 | 28.41252 | -81.31632 | 99 ft | 1 kts | 182° |
| 2026-04-22 07:10 | 28.41245 | -81.31632 | 99 ft | 0 kts | 180° |
| 2026-04-22 07:10 | 28.41241 | -81.31632 | 99 ft | 2 kts | 180° |
| 2026-04-22 07:10 | 28.41234 | -81.31632 | 99 ft | 0 kts | 180° |